»·PEaware :: N333ZS KWJF-KSBA

N333ZS :: KWJF-KSBA

FLIGHT INFORMATION

Flight Status: Arrived
Operator: Privately registered:
United States
More flights under this callsign
Pilot: Judd H. (29974)
Aircraft: CESSNA 182 SKYLANE
(C182)
More flights by this aircraft type
Origin: KWJF Gen Fox
United States
Destination: KSBA Santa Barbara Mun
United States
More flights between these airports :: More routes between these airports
Route: +PMD V386 FIM KWANG
File this flight plan on PilotEdge
Remarks:
Altitude:
(Current/Filed)
9,500ft
Speed:
(Current/Filed)
120kts
Departed: 06-Oct-20 07:50 AM
Arrived: 06-Oct-20 08:42 AM
Distance/Time
Traveled:
82nm/0:52
Distance/Time
To Go:
Arrived

Flight Plot

Page will automatically refresh every two minutes.


Map Options




Map Legend


Flown Route
Filed Route
Departure Airport
Arrival Airport
Navaid (VOR, NDB)
Fix

Horizontal Profiles

Position Reports

Time Latitude Longitude Heading Altitude Ground
Speed
06-Oct-20 07:28 34.739223 -118.214601 252 2351ft 0kts
06-Oct-20 07:29 34.739223 -118.214601 252 2351ft 0kts
06-Oct-20 07:30 34.739223 -118.214601 252 2351ft 0kts
06-Oct-20 07:31 34.739223 -118.214601 252 2351ft 0kts
06-Oct-20 07:32 34.739222 -118.214604 252 2351ft 0kts
06-Oct-20 07:33 34.739221 -118.214605 252 2351ft 0kts
06-Oct-20 07:34 34.739221 -118.214606 252 2351ft 0kts
06-Oct-20 07:35 34.739221 -118.214608 252 2351ft 0kts
06-Oct-20 07:36 34.739220 -118.214609 252 2351ft 0kts
06-Oct-20 07:37 34.739220 -118.214610 252 2351ft 0kts
06-Oct-20 07:38 34.739220 -118.214611 252 2351ft 0kts
06-Oct-20 07:39 34.739219 -118.214613 252 2351ft 0kts
06-Oct-20 07:40 34.739219 -118.214614 252 2351ft 0kts
06-Oct-20 07:41 34.739219 -118.214615 252 2351ft 0kts
06-Oct-20 07:42 34.739218 -118.214617 252 2351ft 0kts
06-Oct-20 07:43 34.739217 -118.214622 253 2351ft 0kts
06-Oct-20 07:44 34.739265 -118.214743 329 2351ft 8kts
06-Oct-20 07:45 34.741559 -118.213160 72 2351ft 15kts
06-Oct-20 07:46 34.743061 -118.207470 71 2351ft 2kts
06-Oct-20 07:47 34.743579 -118.207086 338 2351ft 0kts
06-Oct-20 07:48 34.743954 -118.207450 286 2351ft 11kts
06-Oct-20 07:49 34.738134 -118.229924 253 2784ft 109kts
06-Oct-20 07:50 34.731450 -118.266292 261 3690ft 112kts
06-Oct-20 07:51 34.723870 -118.301760 209 3984ft 98kts
06-Oct-20 07:52 34.709153 -118.276717 109 4553ft 110kts
06-Oct-20 07:53 34.699988 -118.239430 101 5294ft 114kts
06-Oct-20 07:54 34.696335 -118.200413 92 6064ft 117kts
06-Oct-20 07:55 34.696662 -118.160863 102 6776ft 119kts
06-Oct-20 07:56 34.676336 -118.129074 127 7450ft 118kts
06-Oct-20 07:57 34.655654 -118.097913 126 8102ft 117kts
06-Oct-20 07:58 34.629627 -118.076684 178 8746ft 117kts
06-Oct-20 07:59 34.614966 -118.109534 256 9261ft 123kts
06-Oct-20 08:00 34.601706 -118.148452 246 9734ft 126kts
06-Oct-20 08:01 34.587715 -118.187981 245 10075ft 136kts
06-Oct-20 08:02 34.573285 -118.232052 246 10005ft 142kts
06-Oct-20 08:03 34.560207 -118.277555 250 9996ft 141kts
06-Oct-20 08:04 34.546409 -118.321575 249 10080ft 140kts
06-Oct-20 08:05 34.529709 -118.365789 244 10096ft 147kts
06-Oct-20 08:06 34.512512 -118.411231 245 10089ft 148kts
06-Oct-20 08:07 34.499352 -118.459063 248 10078ft 150kts
06-Oct-20 08:08 34.484462 -118.506682 246 10071ft 150kts
06-Oct-20 08:09 34.467967 -118.553347 245 10075ft 150kts
06-Oct-20 08:10 34.451357 -118.599556 245 10077ft 150kts
06-Oct-20 08:11 34.435447 -118.646361 247 10078ft 150kts
06-Oct-20 08:12 34.420010 -118.693327 246 10078ft 150kts
06-Oct-20 08:13 34.403432 -118.739605 245 10078ft 150kts
06-Oct-20 08:14 34.387646 -118.786848 245 10071ft 150kts
06-Oct-20 08:15 34.373142 -118.834277 245 10074ft 150kts
06-Oct-20 08:16 34.358317 -118.881389 251 10068ft 151kts
06-Oct-20 08:17 34.355559 -118.932677 258 10072ft 152kts
06-Oct-20 08:18 34.350134 -118.983536 257 10073ft 152kts
06-Oct-20 08:20 34.344650 -119.034300 261 10073ft 152kts
06-Oct-20 08:21 34.342479 -119.085763 264 10075ft 153kts
06-Oct-20 08:22 34.338347 -119.136766 258 10077ft 152kts
06-Oct-20 08:23 34.333123 -119.187712 258 9756ft 146kts
06-Oct-20 08:24 34.328496 -119.233958 261 9024ft 135kts
06-Oct-20 08:25 34.324138 -119.279579 239 8335ft 134kts
06-Oct-20 08:26 34.304657 -119.316916 235 7685ft 132kts
06-Oct-20 08:27 34.284749 -119.354471 234 6937ft 131kts
06-Oct-20 08:28 34.264228 -119.391101 234 6199ft 130kts
06-Oct-20 08:29 34.262058 -119.430016 306 5424ft 134kts
06-Oct-20 08:30 34.284011 -119.466464 307 4605ft 127kts
06-Oct-20 08:31 34.303112 -119.504426 301 4223ft 128kts
06-Oct-20 08:32 34.323438 -119.541631 296 4065ft 142kts
06-Oct-20 08:33 34.336200 -119.579411 281 3576ft 116kts
06-Oct-20 08:34 34.348129 -119.611932 295 3706ft 102kts
06-Oct-20 08:35 34.361445 -119.648365 292 3535ft 131kts
06-Oct-20 08:36 34.375447 -119.684829 294 2675ft 105kts
06-Oct-20 08:37 34.388214 -119.717115 294 1941ft 109kts
06-Oct-20 08:38 34.399472 -119.748887 293 1571ft 101kts
06-Oct-20 08:39 34.411087 -119.778723 296 1007ft 93kts
06-Oct-20 08:39 34.420117 -119.801640 291 641ft 86kts
06-Oct-20 08:40 34.427940 -119.825569 279 215ft 73kts
06-Oct-20 08:42 34.427719 -119.844486 266 13ft 23kts
06-Oct-20 08:42 34.426607 -119.845854 73 13ft 0kts
06-Oct-20 08:43 34.426405 -119.841298 158 13ft 12kts
06-Oct-20 08:44 34.422768 -119.838496 116 13ft 19kts
06-Oct-20 08:45 34.423562 -119.835821 338 13ft 0kts

Navigation Log

Ident Type
Flight plan parsing failed, navigation log unavailable